createdAt,value
2023-04-01T00:01:15.963Z,9.17
2023-04-01T00:03:43.047Z,9.16
2023-04-01T00:06:12.401Z,9.11
2023-04-01T00:08:39.066Z,9.10
2023-04-01T00:11:06.110Z,9.06
2023-04-01T00:13:33.310Z,9.06
2023-04-01T00:16:00.326Z,9.05
2023-04-01T00:18:26.933Z,9.04
2023-04-01T00:20:54.209Z,9.03
2023-04-01T00:23:21.718Z,9.04
2023-04-01T00:25:49.475Z,9.01
2023-04-01T00:28:20.994Z,8.99
2023-04-01T00:30:48.103Z,8.97
2023-04-01T00:33:15.030Z,8.97
2023-04-01T00:35:45.626Z,8.97
2023-04-01T00:38:12.390Z,8.98
2023-04-01T00:40:42.241Z,8.97
2023-04-01T00:43:21.425Z,8.94
2023-04-01T00:45:50.315Z,8.95
2023-04-01T00:48:31.702Z,8.90
2023-04-01T00:51:06.268Z,8.87
2023-04-01T00:53:34.944Z,8.91
2023-04-01T00:56:06.964Z,8.92
2023-04-01T00:58:39.231Z,8.91
2023-04-01T01:01:07.211Z,8.90
2023-04-01T01:03:33.782Z,8.95
2023-04-01T01:06:08.585Z,8.96
2023-04-01T01:09:08.615Z,8.97
2023-04-01T01:11:44.094Z,8.94
2023-04-01T01:14:24.952Z,8.92
2023-04-01T01:17:00.607Z,8.93
2023-04-01T01:19:53.384Z,8.94
2023-04-01T01:22:53.201Z,8.96
2023-04-01T01:25:35.194Z,8.96
2023-04-01T01:28:20.316Z,8.96
2023-04-01T01:31:12.540Z,8.90
2023-04-01T01:33:59.945Z,8.91
2023-04-01T01:36:31.978Z,8.90
2023-04-01T01:38:59.230Z,8.88
2023-04-01T01:41:28.191Z,8.85
2023-04-01T01:43:57.474Z,8.83
2023-04-01T01:46:27.123Z,8.73
2023-04-01T01:48:55.313Z,8.79
2023-04-01T01:51:23.264Z,8.82
2023-04-01T01:53:49.861Z,8.75
2023-04-01T01:56:19.116Z,8.74
2023-04-01T01:58:50.658Z,8.77
2023-04-01T02:01:30.006Z,8.73
2023-04-01T02:03:58.653Z,8.76
2023-04-01T02:06:30.011Z,8.71
2023-04-01T02:09:06.418Z,8.70
2023-04-01T02:11:38.886Z,8.66
2023-04-01T02:14:16.520Z,8.62
2023-04-01T02:16:56.401Z,8.64
2023-04-01T02:19:28.465Z,8.60
2023-04-01T02:22:00.563Z,8.56
2023-04-01T02:24:30.253Z,8.69
2023-04-01T02:26:56.727Z,8.68
2023-04-01T02:29:26.067Z,8.64
2023-04-01T02:31:53.880Z,8.71
2023-04-01T02:34:22.566Z,8.74
2023-04-01T02:36:51.177Z,8.77
2023-04-01T02:39:18.661Z,8.79
2023-04-01T02:41:46.304Z,8.81
2023-04-01T02:44:14.917Z,8.79
2023-04-01T02:46:42.124Z,8.74
2023-04-01T02:49:08.787Z,8.70
2023-04-01T02:51:35.776Z,8.70
2023-04-01T02:54:02.564Z,8.64
2023-04-01T02:56:29.303Z,8.60
2023-04-01T02:58:55.887Z,8.64
2023-04-01T03:01:22.869Z,8.53
2023-04-01T03:03:49.437Z,8.60
2023-04-01T03:06:17.589Z,8.61
2023-04-01T03:08:44.783Z,8.60
2023-04-01T03:11:11.900Z,8.56
2023-04-01T03:13:38.342Z,8.55
2023-04-01T03:16:05.313Z,8.55
2023-04-01T03:18:31.803Z,8.50
2023-04-01T03:20:58.273Z,8.59
2023-04-01T03:23:25.246Z,8.60
2023-04-01T03:25:51.805Z,8.61
2023-04-01T03:28:18.243Z,8.59
2023-04-01T03:30:44.686Z,8.56
2023-04-01T03:33:11.108Z,8.55
2023-04-01T03:35:37.563Z,8.53
2023-04-01T03:38:04.215Z,8.55
2023-04-01T03:40:30.754Z,8.57
2023-04-01T03:42:57.360Z,8.57
2023-04-01T03:45:23.944Z,8.55
2023-04-01T03:47:50.441Z,8.51
2023-04-01T03:50:17.097Z,8.47
2023-04-01T03:52:43.531Z,8.49
2023-04-01T03:55:10.056Z,8.50
2023-04-01T03:57:36.645Z,8.50
2023-04-01T04:00:03.637Z,8.48
2023-04-01T04:02:30.124Z,8.48
2023-04-01T04:04:56.610Z,8.46
2023-04-01T04:07:23.123Z,8.50
2023-04-01T04:09:49.614Z,8.52
2023-04-01T04:12:16.065Z,8.37
2023-04-01T04:14:42.529Z,8.48
2023-04-01T04:17:14.743Z,8.37
2023-04-01T04:19:41.180Z,8.50
2023-04-01T04:22:07.649Z,8.51
2023-04-01T04:24:36.034Z,8.50
2023-04-01T04:27:02.948Z,8.52
2023-04-01T04:29:29.376Z,8.54
2023-04-01T04:31:55.947Z,8.53
2023-04-01T04:34:23.407Z,8.50
2023-04-01T04:36:49.942Z,8.55
2023-04-01T04:39:16.448Z,8.54
2023-04-01T04:41:42.900Z,8.42
2023-04-01T04:44:09.519Z,8.48
2023-04-01T04:46:37.124Z,8.49
2023-04-01T04:49:03.698Z,8.48
2023-04-01T04:51:30.135Z,8.44
2023-04-01T04:53:56.545Z,8.50
2023-04-01T04:56:23.574Z,8.49
2023-04-01T04:58:50.109Z,8.50
2023-04-01T05:01:17.446Z,8.44
2023-04-01T05:03:44.180Z,8.45
2023-04-01T05:06:13.680Z,8.37
2023-04-01T05:08:41.345Z,8.40
2023-04-01T05:11:13.652Z,8.39
2023-04-01T05:13:40.713Z,8.41
2023-04-01T05:16:17.547Z,8.43
2023-04-01T05:18:44.436Z,8.38
2023-04-01T05:21:13.032Z,8.46
2023-04-01T05:23:39.727Z,8.40
2023-04-01T05:26:11.591Z,8.46
2023-04-01T05:28:39.228Z,8.34
2023-04-01T05:31:06.927Z,8.43
2023-04-01T05:33:34.136Z,8.43
2023-04-01T05:36:11.670Z,8.50
2023-04-01T05:38:38.504Z,8.50
2023-04-01T05:41:05.119Z,8.50
2023-04-01T05:43:31.774Z,8.42
2023-04-01T05:45:59.052Z,8.50
2023-04-01T05:48:25.650Z,8.49
2023-04-01T05:50:52.054Z,8.51
2023-04-01T05:53:18.630Z,8.48
2023-04-01T05:55:45.070Z,8.46
2023-04-01T05:58:11.477Z,8.53
2023-04-01T06:00:39.332Z,8.57
2023-04-01T06:03:06.018Z,8.49
2023-04-01T06:05:40.411Z,8.58
2023-04-01T06:08:17.602Z,8.57
2023-04-01T06:11:04.600Z,8.59
2023-04-01T06:14:11.200Z,8.61
2023-04-01T06:16:50.717Z,8.63
2023-04-01T06:19:45.374Z,8.65
2023-04-01T06:22:36.681Z,8.65
2023-04-01T06:25:18.368Z,8.69
2023-04-01T06:27:56.146Z,8.67
2023-04-01T06:30:47.912Z,8.71
2023-04-01T06:33:32.530Z,8.73
2023-04-01T06:36:14.640Z,8.69
2023-04-01T06:38:50.874Z,8.68
2023-04-01T06:41:55.181Z,8.57
2023-04-01T06:44:38.358Z,8.57
2023-04-01T06:47:12.320Z,8.49
2023-04-01T06:50:00.408Z,8.48
2023-04-01T06:52:51.085Z,8.44
2023-04-01T06:55:47.021Z,8.39
2023-04-01T06:58:33.078Z,8.40
2023-04-01T07:01:04.038Z,8.40
2023-04-01T07:03:48.416Z,8.39
2023-04-01T07:06:32.763Z,8.41
2023-04-01T07:09:11.778Z,8.37
2023-04-01T07:11:39.663Z,8.43
2023-04-01T07:14:15.942Z,8.43
2023-04-01T07:16:51.183Z,8.45
2023-04-01T07:19:22.941Z,8.42
2023-04-01T07:21:53.891Z,8.24
2023-04-01T07:24:26.798Z,8.41
2023-04-01T07:26:58.246Z,8.42
2023-04-01T07:29:26.560Z,8.46
2023-04-01T07:32:03.782Z,8.50
2023-04-01T07:35:04.647Z,8.46
2023-04-01T07:37:52.854Z,8.44
2023-04-01T07:40:37.733Z,8.46
2023-04-01T07:43:38.617Z,8.48
2023-04-01T07:46:24.482Z,8.52
2023-04-01T07:48:59.353Z,8.48
2023-04-01T07:51:39.016Z,8.41
2023-04-01T07:54:19.169Z,8.47
2023-04-01T07:56:51.562Z,8.48
2023-04-01T07:59:36.825Z,8.60
2023-04-01T08:02:18.691Z,8.63
2023-04-01T08:04:55.011Z,8.66
2023-04-01T08:07:26.493Z,8.60
2023-04-01T08:10:14.778Z,8.61
2023-04-01T08:12:56.410Z,8.59
2023-04-01T08:15:28.835Z,8.66
2023-04-01T08:18:07.148Z,8.63
2023-04-01T08:21:11.195Z,8.68
2023-04-01T08:23:45.773Z,8.70
2023-04-01T08:26:17.336Z,8.65
2023-04-01T08:28:54.363Z,8.65
2023-04-01T08:31:31.692Z,8.67
2023-04-01T08:33:58.752Z,8.70
2023-04-01T08:36:38.126Z,8.80
2023-04-01T08:39:19.181Z,8.84
2023-04-01T08:42:18.528Z,8.84
2023-04-01T08:44:44.918Z,8.87
2023-04-01T08:47:27.220Z,8.91
2023-04-01T08:50:11.981Z,8.91
2023-04-01T08:52:49.077Z,8.93
2023-04-01T08:55:50.711Z,8.97
2023-04-01T08:58:33.319Z,8.92
2023-04-01T09:01:37.289Z,8.99
2023-04-01T09:04:15.661Z,8.98
2023-04-01T09:07:09.179Z,8.99
2023-04-01T09:09:36.773Z,9.02
2023-04-01T09:12:11.944Z,8.90
2023-04-01T09:15:30.984Z,8.94
2023-04-01T09:18:19.373Z,8.90
2023-04-01T09:21:13.411Z,8.93
2023-04-01T09:23:55.255Z,8.90
2023-04-01T09:26:27.746Z,8.94
2023-04-01T09:29:38.426Z,8.85
2023-04-01T09:32:23.217Z,8.98
2023-04-01T09:34:55.660Z,8.94
2023-04-01T09:37:27.822Z,8.97
2023-04-01T09:40:12.832Z,8.90
2023-04-01T09:43:06.677Z,8.92
2023-04-01T09:45:44.814Z,8.93
2023-04-01T09:48:59.752Z,8.98
2023-04-01T09:51:45.948Z,8.97
2023-04-01T09:54:47.141Z,8.98
2023-04-01T09:57:55.229Z,9.05
2023-04-01T10:00:33.356Z,9.02
2023-04-01T10:04:03.248Z,8.94
2023-04-01T10:07:09.093Z,9.06
2023-04-01T10:10:12.694Z,9.13
2023-04-01T10:12:59.875Z,9.14
2023-04-01T10:15:45.223Z,9.17
2023-04-01T10:18:39.138Z,9.03
2023-04-01T10:21:27.522Z,9.03
2023-04-01T10:24:19.404Z,8.97
2023-04-01T10:27:03.248Z,8.95
2023-04-01T10:29:53.507Z,8.99
2023-04-01T10:32:22.645Z,9.01
2023-04-01T10:35:26.293Z,9.08
2023-04-01T10:38:20.993Z,9.14
2023-04-01T10:41:29.400Z,9.16
2023-04-01T10:44:23.012Z,9.15
2023-04-01T10:47:26.352Z,9.12
2023-04-01T10:50:11.385Z,9.33
2023-04-01T10:52:43.902Z,9.36
2023-04-01T10:55:47.829Z,9.31
2023-04-01T10:58:47.826Z,9.46
2023-04-01T11:01:20.616Z,9.54
2023-04-01T11:04:09.726Z,9.47
2023-04-01T11:06:54.971Z,9.45
2023-04-01T11:09:46.205Z,9.49
2023-04-01T11:12:45.133Z,9.57
2023-04-01T11:15:42.753Z,9.59
2023-04-01T11:18:37.123Z,9.63
2023-04-01T11:21:34.668Z,9.67
2023-04-01T11:24:26.155Z,9.68
2023-04-01T11:27:42.901Z,9.76
2023-04-01T11:30:34.759Z,9.88
2023-04-01T11:33:19.492Z,9.88
2023-04-01T11:36:07.708Z,9.98
2023-04-01T11:38:56.815Z,9.95
2023-04-01T11:41:44.572Z,9.94
2023-04-01T11:44:17.989Z,10.05
2023-04-01T11:47:09.412Z,10.17
2023-04-01T11:49:44.944Z,10.26
2023-04-01T11:52:30.042Z,10.32
2023-04-01T11:55:21.903Z,10.31
2023-04-01T11:58:14.061Z,10.32
2023-04-01T12:01:06.005Z,10.35
2023-04-01T12:03:51.376Z,10.40
2023-04-01T12:06:35.761Z,10.41
2023-04-01T12:09:24.003Z,10.41
2023-04-01T12:12:15.412Z,10.39
2023-04-01T12:15:05.057Z,10.43
2023-04-01T12:17:37.398Z,10.26
2023-04-01T12:20:13.023Z,10.34
2023-04-01T12:22:54.643Z,10.41
2023-04-01T12:25:31.256Z,10.40
2023-04-01T12:28:01.030Z,10.37
2023-04-01T12:30:46.217Z,10.38
2023-04-01T12:33:38.747Z,10.40
2023-04-01T12:36:23.718Z,10.37
2023-04-01T12:39:20.107Z,10.36
2023-04-01T12:42:09.560Z,10.35
2023-04-01T12:44:54.584Z,10.29
2023-04-01T12:47:55.799Z,10.34
2023-04-01T12:50:54.415Z,10.34
2023-04-01T12:53:51.698Z,10.27
2023-04-01T12:56:40.285Z,10.22
2023-04-01T12:59:28.048Z,10.20
2023-04-01T13:02:17.191Z,10.25
2023-04-01T13:05:21.026Z,10.02
2023-04-01T13:08:02.307Z,9.94
2023-04-01T13:10:37.907Z,9.95
2023-04-01T13:13:19.831Z,10.01
2023-04-01T13:16:12.338Z,10.02
2023-04-01T13:18:41.670Z,10.00
2023-04-01T13:21:31.860Z,9.97
2023-04-01T13:24:23.270Z,10.03
2023-04-01T13:27:14.000Z,10.08
2023-04-01T13:30:07.056Z,10.05
2023-04-01T13:32:44.059Z,10.14
2023-04-01T13:35:25.993Z,10.20
2023-04-01T13:38:10.767Z,10.24
2023-04-01T13:41:22.777Z,10.29
2023-04-01T13:43:59.390Z,10.36
2023-04-01T13:46:54.021Z,10.42
2023-04-01T13:49:48.199Z,10.47
2023-04-01T13:53:02.682Z,10.46
2023-04-01T13:55:29.109Z,10.41
2023-04-01T13:58:31.004Z,10.46
2023-04-01T14:01:07.784Z,10.41
2023-04-01T14:03:40.931Z,10.44
2023-04-01T14:06:20.670Z,10.43
2023-04-01T14:08:53.186Z,10.44
2023-04-01T14:11:33.608Z,10.47
2023-04-01T14:14:17.246Z,10.41
2023-04-01T14:17:02.157Z,10.44
2023-04-01T14:19:29.855Z,10.24
2023-04-01T14:22:03.145Z,10.14
2023-04-01T14:24:29.549Z,10.15
2023-04-01T14:27:05.054Z,10.11
2023-04-01T14:29:44.456Z,10.16
2023-04-01T14:32:25.335Z,10.08
2023-04-01T14:35:17.794Z,10.08
2023-04-01T14:38:05.377Z,10.06
2023-04-01T14:40:53.209Z,10.12
2023-04-01T14:43:35.772Z,10.13
2023-04-01T14:46:18.237Z,10.09
2023-04-01T14:48:58.845Z,10.12
2023-04-01T14:51:31.156Z,10.06
2023-04-01T14:54:14.433Z,10.08
2023-04-01T14:56:48.729Z,10.04
2023-04-01T14:59:27.570Z,10.02
2023-04-01T15:02:04.034Z,10.01
2023-04-01T15:04:59.760Z,9.92
2023-04-01T15:08:00.952Z,10.06
2023-04-01T15:10:35.604Z,10.08
2023-04-01T15:13:13.430Z,10.12
2023-04-01T15:15:56.452Z,10.15
2023-04-01T15:18:31.634Z,10.14
2023-04-01T15:21:19.498Z,10.07
2023-04-01T15:23:48.639Z,10.07
2023-04-01T15:26:23.021Z,10.05
2023-04-01T15:29:08.845Z,10.13
2023-04-01T15:32:07.656Z,10.10
2023-04-01T15:34:47.169Z,10.13
2023-04-01T15:37:31.021Z,10.19
2023-04-01T15:40:21.180Z,10.22
2023-04-01T15:43:23.086Z,10.27
2023-04-01T15:45:56.049Z,10.28
2023-04-01T15:48:40.718Z,10.31
2023-04-01T15:51:37.443Z,10.32
2023-04-01T15:54:26.007Z,10.27
2023-04-01T15:57:31.576Z,10.25
2023-04-01T16:00:34.535Z,10.25
2023-04-01T16:03:19.968Z,10.14
2023-04-01T16:06:11.199Z,10.17
2023-04-01T16:09:03.819Z,10.22
2023-04-01T16:11:41.869Z,10.28
2023-04-01T16:14:32.726Z,10.27
2023-04-01T16:17:45.207Z,10.26
2023-04-01T16:20:21.880Z,10.13
2023-04-01T16:22:58.550Z,10.06
2023-04-01T16:25:54.188Z,10.01
2023-04-01T16:28:46.426Z,9.97
2023-04-01T16:31:12.790Z,9.96
2023-04-01T16:33:56.437Z,9.95
2023-04-01T16:36:32.032Z,9.89
2023-04-01T16:39:31.885Z,9.90
2023-04-01T16:42:07.496Z,9.87
2023-04-01T16:45:09.604Z,9.78
2023-04-01T16:47:51.428Z,9.81
2023-04-01T16:50:22.266Z,9.81
2023-04-01T16:53:16.953Z,9.75
2023-04-01T16:55:51.120Z,9.66
2023-04-01T16:58:25.868Z,9.73
2023-04-01T17:01:02.584Z,9.74
2023-04-01T17:03:42.445Z,9.71
2023-04-01T17:06:22.642Z,9.73
2023-04-01T17:09:17.870Z,9.71
2023-04-01T17:12:11.508Z,9.63
2023-04-01T17:14:55.486Z,9.63
2023-04-01T17:17:36.314Z,9.61
2023-04-01T17:20:21.413Z,9.57
2023-04-01T17:22:59.939Z,9.50
2023-04-01T17:25:42.927Z,9.45
2023-04-01T17:28:51.562Z,9.45
2023-04-01T17:31:27.000Z,9.47
2023-04-01T17:34:15.629Z,9.42
2023-04-01T17:37:03.791Z,9.40
2023-04-01T17:40:13.469Z,9.34
2023-04-01T17:43:07.229Z,9.26
2023-04-01T17:45:50.000Z,9.22
2023-04-01T17:48:25.384Z,9.24
2023-04-01T17:51:12.048Z,9.22
2023-04-01T17:54:15.657Z,9.24
2023-04-01T17:56:55.887Z,9.22
2023-04-01T17:59:22.289Z,9.19
2023-04-01T18:02:19.442Z,9.16
2023-04-01T18:05:23.384Z,9.16
2023-04-01T18:07:55.660Z,9.15
2023-04-01T18:10:30.059Z,9.16
2023-04-01T18:13:09.384Z,9.13
2023-04-01T18:15:46.841Z,9.14
2023-04-01T18:18:38.047Z,9.12
2023-04-01T18:21:24.230Z,9.07
2023-04-01T18:24:11.383Z,9.12
2023-04-01T18:26:40.926Z,9.06
2023-04-01T18:29:39.297Z,9.11
2023-04-01T18:32:11.812Z,9.09
2023-04-01T18:34:59.378Z,9.01
2023-04-01T18:37:33.718Z,8.91
2023-04-01T18:40:25.318Z,8.87
2023-04-01T18:43:05.304Z,8.83
2023-04-01T18:45:38.503Z,8.76
2023-04-01T18:48:17.194Z,8.83
2023-04-01T18:51:03.210Z,8.87
2023-04-01T18:53:42.610Z,8.88
2023-04-01T18:56:31.988Z,8.91
2023-04-01T18:59:11.607Z,8.90
2023-04-01T19:01:44.743Z,8.89
2023-04-01T19:04:20.594Z,8.88
2023-04-01T19:06:55.809Z,8.90
2023-04-01T19:09:24.057Z,8.91
2023-04-01T19:12:14.920Z,8.90
2023-04-01T19:14:50.550Z,8.83
2023-04-01T19:17:30.149Z,8.81
2023-04-01T19:20:22.544Z,8.84
2023-04-01T19:23:13.505Z,8.81
2023-04-01T19:25:49.231Z,8.81
2023-04-01T19:28:45.887Z,8.71
2023-04-01T19:31:31.269Z,8.73
2023-04-01T19:34:20.074Z,8.72
2023-04-01T19:36:52.633Z,8.70
2023-04-01T19:39:36.366Z,8.64
2023-04-01T19:42:46.930Z,8.65
2023-04-01T19:45:16.322Z,8.66
2023-04-01T19:48:13.990Z,8.65
2023-04-01T19:50:54.419Z,8.59
2023-04-01T19:53:47.732Z,8.55
2023-04-01T19:56:18.922Z,8.53
2023-04-01T19:59:00.389Z,8.54
2023-04-01T20:01:44.644Z,8.54
2023-04-01T20:04:17.278Z,8.55
2023-04-01T20:07:12.820Z,8.59
2023-04-01T20:09:58.066Z,8.61
2023-04-01T20:12:47.340Z,8.59
2023-04-01T20:15:41.683Z,8.56
2023-04-01T20:18:37.159Z,8.57
2023-04-01T20:21:17.402Z,8.57
2023-04-01T20:23:51.542Z,8.51
2023-04-01T20:26:26.264Z,8.51
2023-04-01T20:29:08.653Z,8.53
2023-04-01T20:31:42.432Z,8.53
2023-04-01T20:34:15.232Z,8.55
2023-04-01T20:37:01.382Z,8.50
2023-04-01T20:39:46.836Z,8.43
2023-04-01T20:42:32.144Z,8.38
2023-04-01T20:45:16.988Z,8.36
2023-04-01T20:48:18.917Z,8.37
2023-04-01T20:50:54.504Z,8.30
2023-04-01T20:53:38.028Z,8.34
2023-04-01T20:56:27.130Z,8.34
2023-04-01T20:59:21.745Z,8.40
2023-04-01T21:02:03.116Z,8.39
2023-04-01T21:04:58.729Z,8.44
2023-04-01T21:07:50.821Z,8.50
2023-04-01T21:10:42.649Z,8.54
2023-04-01T21:13:27.802Z,8.60
2023-04-01T21:16:16.128Z,8.63
2023-04-01T21:18:58.831Z,8.70
2023-04-01T21:21:35.605Z,8.74
2023-04-01T21:27:12.050Z,8.83
2023-04-01T21:29:44.087Z,8.88
2023-04-01T21:32:20.252Z,8.92
2023-04-01T21:35:11.732Z,8.94
2023-04-01T21:37:53.441Z,8.91
2023-04-01T21:40:38.611Z,8.92
2023-04-01T21:43:33.130Z,8.91
2023-04-01T21:46:33.821Z,8.89
2023-04-01T21:49:25.639Z,8.91
2023-04-01T21:52:18.895Z,8.88
2023-04-01T21:55:12.466Z,8.84
2023-04-01T21:57:44.727Z,8.76
2023-04-01T22:00:17.145Z,8.81
2023-04-01T22:03:23.889Z,8.78
2023-04-01T22:05:56.401Z,8.79
2023-04-01T22:08:47.392Z,8.77
2023-04-01T22:11:55.124Z,8.69
2023-04-01T22:14:42.896Z,8.70
2023-04-01T22:17:32.037Z,8.65
2023-04-01T22:20:15.999Z,8.57
2023-04-01T22:23:07.000Z,8.54
2023-04-01T22:26:00.210Z,8.49
2023-04-01T22:28:39.362Z,8.45
2023-04-01T22:31:11.401Z,8.41
2023-04-01T22:34:00.868Z,8.33
2023-04-01T22:36:42.058Z,8.31
2023-04-01T22:39:34.419Z,8.31
2023-04-01T22:42:22.345Z,8.27
2023-04-01T22:44:54.791Z,8.24
2023-04-01T22:47:33.733Z,8.18
2023-04-01T22:50:21.440Z,8.16
2023-04-01T22:52:51.128Z,8.14
2023-04-01T22:55:23.228Z,8.05
2023-04-01T22:58:01.155Z,7.98
2023-04-01T23:00:46.488Z,7.96
2023-04-01T23:03:23.456Z,7.94
2023-04-01T23:05:49.815Z,7.93
2023-04-01T23:08:22.126Z,7.91
2023-04-01T23:10:56.473Z,7.88
2023-04-01T23:13:41.059Z,7.87
2023-04-01T23:16:09.263Z,7.81
2023-04-01T23:18:56.251Z,7.77
2023-04-01T23:21:35.524Z,7.70
2023-04-01T23:24:13.778Z,7.68
2023-04-01T23:26:46.950Z,7.67
2023-04-01T23:29:17.546Z,7.64
2023-04-01T23:31:46.609Z,7.57
2023-04-01T23:34:13.058Z,7.54
2023-04-01T23:36:46.985Z,7.53
2023-04-01T23:39:34.172Z,7.51
2023-04-01T23:42:08.501Z,7.50
2023-04-01T23:44:37.140Z,7.45
2023-04-01T23:47:06.039Z,7.39
2023-04-01T23:49:48.953Z,7.47
2023-04-01T23:52:24.014Z,7.49
2023-04-01T23:54:54.737Z,7.44
2023-04-01T23:57:31.652Z,7.41
